SARP/PSS METAR and TAF weather

Enter ICAO airport designator
Station Type Date Time Source
SARP METAR 2020/09/27 00:00 UTC NOAA

SARP 270000Z 05001KT 9999 NSC 31/18 Q1001


Station Type Date Time Source
SARP Decoded METAR 2020/09/27 00:00 UTC NOAA

Posadas Aero., Argentina (SARP) 27-22S 055-58W 133M
Sep 26, 2020 - 08:00 PM EDT / 2020.09.27 0000 UTC
Wind: from the NE (050 degrees) at 1 MPH (1 KT):0
Visibility: greater than 7 mile(s):0
Temperature: 87 F (31 C)
Dew Point: 64 F (18 C)
Relative Humidity: 45%
Pressure (altimeter): 29.56 in. Hg (1001 hPa)
ob: SARP 270000Z 05001KT 9999 NSC 31/18 Q1001
cycle: 0

Station Type Date Time Source
SARP TAF 2020/09/27 00:00 UTC NOAA

TAF SARP 262300Z 2700/2724 36005KT CAVOK TX38/2718Z TN24/2710Z PROB40 2709/2713 7000 -TSRA BKN040 FEW050CB

Example: see airport list